Time;durP1;ratioP1;P1;durP2;ratioP2;P2;SDS_P1;SDS_P2;PMS_P1;PMS_P2;Temp;Humidity;BMP_temperature;BMP_pressure;BME280_temperature;BME280_humidity;BME280_pressure;Samples;Min_cycle;Max_cycle;Signal;HPM_P1;HPM_P2
2020/12/28 00:00:09;;;;;;;2.00;1.50;;;;;;;8.98;96.99;93987.94;5015559;28;20471;-81
2020/12/28 00:02:35;;;;;;;2.27;2.07;;;;;;;8.92;96.26;93984.09;5013278;28;20445;-82
2020/12/28 00:05:06;;;;;;;1.93;1.83;;;;;;;8.86;95.70;93995.13;5013558;28;20828;-81
2020/12/28 00:07:33;;;;;;;2.17;1.97;;;;;;;8.91;95.43;93992.06;5013116;28;20454;-80
2020/12/28 00:09:59;;;;;;;3.60;3.30;;;;;;;8.82;96.42;93995.56;5013485;28;21027;-80
2020/12/28 00:12:28;;;;;;;3.37;3.07;;;;;;;8.78;96.86;93991.56;5013184;28;20801;-81
2020/12/28 00:14:55;;;;;;;1.77;1.67;;;;;;;8.90;96.98;93990.44;5013460;28;20481;-81
2020/12/28 00:17:21;;;;;;;2.40;1.97;;;;;;;9.00;96.73;93999.91;5013495;28;20499;-80
2020/12/28 00:19:47;;;;;;;2.53;2.33;;;;;;;8.95;96.13;94003.91;5013376;28;20464;-81
2020/12/28 00:22:15;;;;;;;2.47;2.27;;;;;;;9.14;96.42;94024.78;5012772;28;20459;-80
2020/12/28 00:24:41;;;;;;;5.37;3.40;;;;;;;9.21;95.14;94014.56;5012352;28;20449;-81
2020/12/28 00:27:07;;;;;;;15.27;9.97;;;;;;;8.99;98.17;94003.50;5012804;28;20462;-80
2020/12/28 00:29:33;;;;;;;24.73;12.67;;;;;;;8.79;100.00;94003.69;5012777;28;20444;-81
2020/12/28 00:32:00;;;;;;;13.30;10.53;;;;;;;8.57;100.00;93995.19;5014632;28;20465;-80
2020/12/28 00:34:26;;;;;;;17.70;9.97;;;;;;;8.35;100.00;93990.25;5016147;28;20457;-81
2020/12/28 00:36:53;;;;;;;17.30;11.03;;;;;;;8.15;100.00;93986.81;5016110;28;20930;-81
2020/12/28 00:39:20;;;;;;;16.40;10.30;;;;;;;8.16;100.00;93990.25;5016453;28;20931;-80
2020/12/28 00:41:46;;;;;;;13.50;9.70;;;;;;;8.16;100.00;93992.84;5016127;28;20453;-80
2020/12/28 00:44:13;;;;;;;18.20;7.70;;;;;;;8.06;100.00;93977.97;5015750;28;20443;-81
2020/12/28 00:46:39;;;;;;;14.40;8.47;;;;;;;8.07;100.00;93978.81;5016107;28;20525;-80
2020/12/28 00:49:05;;;;;;;9.20;7.17;;;;;;;8.05;100.00;93973.72;5015986;28;20437;-80
2020/12/28 00:51:32;;;;;;;9.00;7.00;;;;;;;8.03;100.00;93953.94;5015893;28;20440;-80
2020/12/28 00:53:58;;;;;;;12.53;5.77;;;;;;;7.97;100.00;93963.13;5016364;28;20447;-81
2020/12/28 00:56:25;;;;;;;8.17;6.23;;;;;;;8.01;100.00;93967.13;5016198;28;20538;-80
2020/12/28 00:58:51;;;;;;;7.20;5.63;;;;;;;7.98;100.00;93959.56;5015795;28;20900;-80
2020/12/28 01:01:18;;;;;;;8.20;5.80;;;;;;;8.00;100.00;93970.69;5016181;28;20829;-80
2020/12/28 01:03:44;;;;;;;8.50;6.40;;;;;;;7.90;100.00;93964.66;5015758;28;20826;-81
2020/12/28 01:06:10;;;;;;;8.33;5.90;;;;;;;7.85;100.00;93956.41;5015255;28;20506;-81
2020/12/28 01:08:38;;;;;;;7.37;5.80;;;;;;;7.86;100.00;93968.50;4997099;28;20451;-80
2020/12/28 01:11:05;;;;;;;9.30;6.63;;;;;;;8.09;100.00;93976.88;5015438;28;20440;-80
2020/12/28 01:13:32;;;;;;;6.23;5.13;;;;;;;8.06;100.00;93971.94;5015053;28;20447;-80
2020/12/28 01:15:58;;;;;;;6.67;4.90;;;;;;;8.03;100.00;93978.25;5015015;28;20501;-80
2020/12/28 01:18:25;;;;;;;9.33;6.00;;;;;;;8.07;100.00;93971.78;4996245;28;20445;-80
2020/12/28 01:20:51;;;;;;;9.83;6.43;;;;;;;8.01;100.00;93982.81;5014900;28;20486;-81
2020/12/28 01:23:18;;;;;;;8.10;4.83;;;;;;;7.97;100.00;93986.66;5014728;28;20582;-81
2020/12/28 01:25:44;;;;;;;5.17;4.57;;;;;;;7.93;100.00;93984.44;5015018;28;20456;-81
2020/12/28 01:28:11;;;;;;;6.00;5.40;;;;;;;8.01;100.00;93977.56;5015019;28;20447;-80
2020/12/28 01:30:38;;;;;;;4.87;4.37;;;;;;;7.74;100.00;93973.00;5015006;28;20447;-81
2020/12/28 01:33:04;;;;;;;7.63;4.70;;;;;;;7.74;100.00;93977.41;5015113;28;20510;-81
2020/12/28 01:35:31;;;;;;;7.50;4.63;;;;;;;7.63;100.00;93967.09;5014972;28;20897;-81
2020/12/28 01:37:57;;;;;;;4.47;4.03;;;;;;;7.55;100.00;93962.56;5015457;28;20455;-82
2020/12/28 01:40:23;;;;;;;4.17;3.77;;;;;;;7.50;100.00;93966.50;5015169;28;20454;-81
2020/12/28 01:42:50;;;;;;;10.80;3.50;;;;;;;7.52;100.00;93959.38;5014182;28;20509;-80
2020/12/28 01:45:16;;;;;;;5.77;3.03;;;;;;;7.51;100.00;93968.16;5014652;28;20845;-80
2020/12/28 01:47:43;;;;;;;3.30;2.70;;;;;;;7.53;100.00;93948.00;5014177;28;20517;-81
2020/12/28 01:50:10;;;;;;;4.20;3.70;;;;;;;7.58;100.00;93959.69;5014792;28;20462;-81
2020/12/28 01:52:37;;;;;;;6.40;4.40;;;;;;;7.69;100.00;93962.16;5014281;28;20454;-81
2020/12/28 01:55:03;;;;;;;8.70;5.00;;;;;;;7.85;100.00;93966.03;5014245;28;20491;-81
2020/12/28 01:57:30;;;;;;;8.00;4.83;;;;;;;8.00;100.00;93957.63;5014328;28;20464;-80
2020/12/28 01:59:57;;;;;;;10.93;4.30;;;;;;;8.10;99.45;93951.59;5014664;28;20803;-80
2020/12/28 02:02:26;;;;;;;7.17;3.90;;;;;;;8.13;98.81;93948.72;5014939;28;20448;-80
2020/12/28 02:04:54;;;;;;;15.33;8.37;;;;;;;8.15;98.33;93960.69;5014319;28;20876;-81
2020/12/28 02:07:24;;;;;;;30.20;11.80;;;;;;;8.20;97.05;93948.00;5014497;28;20444;-80
2020/12/28 02:09:50;;;;;;;24.50;10.03;;;;;;;8.22;96.42;93961.75;5014266;28;20823;-80
2020/12/28 02:12:17;;;;;;;20.93;7.97;;;;;;;8.17;95.79;93958.75;5013823;28;20448;-81
2020/12/28 02:14:43;;;;;;;6.97;6.10;;;;;;;8.12;95.73;93953.13;5013937;28;20898;-81
2020/12/28 02:17:10;;;;;;;7.70;4.80;;;;;;;8.14;95.75;93934.69;5014509;28;20448;-81
2020/12/28 02:19:36;;;;;;;5.00;4.10;;;;;;;8.10;96.38;93928.91;5013840;28;20455;-81
2020/12/28 02:22:03;;;;;;;5.63;4.17;;;;;;;8.11;96.24;93920.13;5013972;28;20969;-81
2020/12/28 02:24:29;;;;;;;4.60;4.20;;;;;;;8.13;96.26;93912.13;5013887;28;20474;-80
2020/12/28 02:26:56;;;;;;;9.63;5.10;;;;;;;8.15;95.53;93918.88;4995460;28;20451;-81
2020/12/28 02:29:22;;;;;;;6.43;4.90;;;;;;;8.14;94.70;93929.47;5013540;28;20956;-81
2020/12/28 02:31:48;;;;;;;14.07;8.17;;;;;;;8.15;95.29;93936.34;5013837;28;20830;-81
2020/12/28 02:34:17;;;;;;;16.10;9.50;;;;;;;8.07;94.74;93937.00;5013264;28;20826;-81
2020/12/28 02:36:44;;;;;;;21.53;11.43;;;;;;;8.05;94.82;93931.91;5013702;28;20491;-80
2020/12/28 02:39:11;;;;;;;22.70;13.20;;;;;;;8.03;95.23;93948.69;5013267;28;20940;-81
2020/12/28 02:41:37;;;;;;;20.23;11.57;;;;;;;8.03;94.87;93944.28;5013092;28;20451;-81
2020/12/28 02:44:04;;;;;;;17.60;9.27;;;;;;;7.99;94.65;93947.31;4994914;28;20506;-81
2020/12/28 02:46:30;;;;;;;17.53;10.20;;;;;;;7.99;95.45;93953.38;5013394;28;20456;-80
2020/12/28 02:48:56;;;;;;;14.70;9.10;;;;;;;7.94;95.05;93960.81;5013006;28;20815;-81
2020/12/28 02:51:23;;;;;;;15.40;9.53;;;;;;;7.97;95.62;93970.16;5012955;28;20447;-81
2020/12/28 02:53:49;;;;;;;8.00;5.30;;;;;;;7.97;94.96;93981.44;4978184;28;20447;-81
2020/12/28 02:56:16;;;;;;;14.87;6.97;;;;;;;7.83;95.55;93981.84;5012462;28;21058;-81
2020/12/28 02:58:43;;;;;;;10.73;7.97;;;;;;;7.75;96.75;93981.66;5013221;28;20506;-81
2020/12/28 03:01:09;;;;;;;9.60;6.93;;;;;;;7.75;97.45;93986.91;5013038;28;20452;-81
2020/12/28 03:03:36;;;;;;;7.87;6.30;;;;;;;7.81;97.83;93982.94;5012980;28;20532;-80
2020/12/28 03:06:03;;;;;;;10.93;7.13;;;;;;;7.75;97.51;93989.50;5013141;28;20448;-81
2020/12/28 03:08:29;;;;;;;11.67;7.53;;;;;;;7.68;98.71;93980.56;5012702;28;20451;-81
2020/12/28 03:10:55;;;;;;;8.73;7.03;;;;;;;7.77;98.41;93975.34;5012633;28;20444;-81
2020/12/28 03:13:23;;;;;;;8.93;7.27;;;;;;;7.82;97.44;93977.59;5012736;28;20459;-81
2020/12/28 03:15:49;;;;;;;12.07;6.90;;;;;;;7.79;96.40;93983.03;5012579;28;20900;-81
2020/12/28 03:18:15;;;;;;;8.90;6.47;;;;;;;7.86;95.86;93980.75;5012543;28;20458;-81
2020/12/28 03:20:42;;;;;;;6.33;4.97;;;;;;;7.83;95.26;93976.63;5012798;28;20451;-81
2020/12/28 03:23:08;;;;;;;4.90;4.30;;;;;;;7.82;94.62;93984.59;5012298;28;20518;-81
2020/12/28 03:25:34;;;;;;;4.37;3.97;;;;;;;7.81;94.29;93969.88;5012609;28;20941;-81
2020/12/28 03:28:01;;;;;;;9.93;5.40;;;;;;;7.80;93.74;93971.63;5012862;28;20982;-81
2020/12/28 03:30:28;;;;;;;10.67;5.07;;;;;;;7.75;93.79;93977.28;5012552;28;20590;-81
2020/12/28 03:32:54;;;;;;;6.43;4.90;;;;;;;7.73;94.21;93984.41;5012473;28;20447;-81
2020/12/28 03:35:21;;;;;;;11.40;5.60;;;;;;;7.57;94.17;93963.25;5012479;28;20569;-81
2020/12/28 03:37:47;;;;;;;6.63;5.73;;;;;;;7.47;94.83;93978.88;5012460;28;20470;-81
2020/12/28 03:40:14;;;;;;;10.40;5.33;;;;;;;7.50;95.34;93976.94;5012319;28;20504;-81
2020/12/28 03:42:40;;;;;;;6.93;5.67;;;;;;;7.51;95.23;93982.03;5012224;28;20518;-81
2020/12/28 03:45:06;;;;;;;11.00;6.90;;;;;;;7.44;95.71;93981.75;5012411;28;20431;-80
2020/12/28 03:47:34;;;;;;;11.33;6.70;;;;;;;7.41;95.91;93975.97;5012175;28;20962;-81
2020/12/28 03:50:00;;;;;;;8.70;6.53;;;;;;;7.31;95.92;93978.56;4993765;28;20473;-80
2020/12/28 03:52:26;;;;;;;8.27;5.70;;;;;;;7.31;96.43;93956.88;5012248;28;20506;-80
2020/12/28 03:54:53;;;;;;;15.43;6.33;;;;;;;7.30;96.72;93974.31;5012178;28;20488;-81
2020/12/28 03:57:19;;;;;;;13.20;6.30;;;;;;;7.28;96.98;93973.63;4993662;28;20877;-80
2020/12/28 03:59:45;;;;;;;16.30;9.17;;;;;;;7.03;97.19;93968.84;5012276;28;20460;-81
2020/12/28 04:02:12;;;;;;;16.63;10.73;;;;;;;7.05;97.43;93980.81;4993638;28;20798;-81
2020/12/28 04:04:40;;;;;;;21.40;11.40;;;;;;;6.94;98.22;93965.25;5012259;28;20454;-81
2020/12/28 04:07:06;;;;;;;20.60;10.73;;;;;;;6.92;98.42;93966.31;5014538;28;20463;-81
2020/12/28 04:09:33;;;;;;;16.30;9.93;;;;;;;6.97;98.77;93979.81;5016418;28;20455;-81
2020/12/28 04:11:59;;;;;;;20.17;12.60;;;;;;;7.01;98.82;93989.03;4981375;28;20482;-81
2020/12/28 04:14:25;;;;;;;13.23;7.80;;;;;;;7.04;97.97;93980.94;5016469;28;20665;-81
2020/12/28 04:16:52;;;;;;;8.67;6.63;;;;;;;7.08;97.42;93995.38;5013533;28;20474;-81
2020/12/28 04:19:18;;;;;;;8.77;5.83;;;;;;;7.07;96.86;93986.72;5015867;28;20529;-81
2020/12/28 04:21:45;;;;;;;10.13;7.03;;;;;;;7.08;96.55;93997.97;5015584;28;20450;-80
2020/12/28 04:24:15;;;;;;;10.90;7.18;;;;;;;6.99;96.71;93999.59;5016924;28;20447;-90
2020/12/28 04:26:42;;;;;;;15.80;6.80;;;;;;;7.02;98.25;94007.16;5017857;28;20278;-87
2020/12/28 04:29:09;;;;;;;8.97;7.20;;;;;;;7.11;97.90;94008.16;5018121;28;20450;-90
2020/12/28 04:31:35;;;;;;;7.50;6.80;;;;;;;7.14;96.33;94007.88;5012255;28;20447;-79
2020/12/28 04:34:01;;;;;;;9.20;7.80;;;;;;;7.14;95.81;93998.28;5015371;28;20447;-79
2020/12/28 04:36:28;;;;;;;8.50;5.87;;;;;;;7.12;94.80;93991.53;5015082;28;20482;-79
2020/12/28 04:38:55;;;;;;;17.07;10.37;;;;;;;7.03;94.98;93987.13;4997200;28;20462;-79
2020/12/28 04:41:22;;;;;;;12.10;7.90;;;;;;;7.02;94.65;93982.84;5015400;28;20447;-80
2020/12/28 04:43:48;;;;;;;12.97;8.77;;;;;;;7.00;95.28;93992.59;5015555;28;20443;-80
2020/12/28 04:46:15;;;;;;;8.40;7.03;;;;;;;6.88;94.48;94002.28;5005060;28;20435;-80
2020/12/28 04:48:42;;;;;;;9.70;7.17;;;;;;;6.80;94.53;93982.06;4961300;28;20509;-79
2020/12/28 04:51:08;;;;;;;8.10;7.13;;;;;;;6.80;95.04;94002.94;4977293;28;20998;-80
2020/12/28 04:53:36;;;;;;;10.93;8.07;;;;;;;6.82;95.22;93985.38;4995600;28;20456;-80
2020/12/28 04:56:03;;;;;;;14.70;7.53;;;;;;;6.82;95.20;93977.53;4995638;28;20891;-80
2020/12/28 04:58:29;;;;;;;8.40;7.00;;;;;;;6.83;94.66;93979.19;4961138;28;20479;-80
2020/12/28 05:00:59;;;;;;;9.23;7.00;;;;;;;6.78;94.91;93988.38;4995864;28;20479;-79
2020/12/28 05:03:27;;;;;;;7.23;6.23;;;;;;;6.80;95.17;93983.84;4995221;28;20448;-79
2020/12/28 05:05:56;;;;;;;15.20;8.00;;;;;;;6.78;95.40;93991.81;4995466;28;20486;-80
2020/12/28 05:08:23;;;;;;;24.10;11.40;;;;;;;6.77;95.79;93992.75;4995601;28;20459;-80
2020/12/28 05:10:51;;;;;;;23.03;12.97;;;;;;;6.76;95.68;94004.16;4977374;28;20452;-79
2020/12/28 05:13:18;;;;;;;25.87;15.57;;;;;;;6.78;95.79;94023.09;4995409;28;20870;-77
2020/12/28 05:15:46;;;;;;;12.60;8.87;;;;;;;6.70;97.14;94014.25;4994712;28;21010;-76
2020/12/28 05:18:14;;;;;;;13.30;9.00;;;;;;;6.76;97.29;94014.56;4994463;28;20543;-77
2020/12/28 05:20:43;;;;;;;9.60;7.37;;;;;;;6.81;97.11;94016.78;4994899;28;20552;-77
2020/12/28 05:23:10;;;;;;;14.40;10.53;;;;;;;6.80;97.54;94026.38;4995319;28;20444;-78
2020/12/28 05:25:36;;;;;;;13.47;10.23;;;;;;;6.82;98.17;94021.88;4995577;28;20641;-81
2020/12/28 05:28:04;;;;;;;20.10;13.33;;;;;;;6.83;98.21;94030.53;4994725;28;20456;-80
2020/12/28 05:30:32;;;;;;;19.53;11.70;;;;;;;6.76;97.42;94045.84;4995051;28;20505;-80
2020/12/28 05:33:03;;;;;;;19.70;12.43;;;;;;;6.81;96.14;94061.13;5011531;28;20447;-81
2020/12/28 05:35:31;;;;;;;17.27;10.80;;;;;;;6.82;95.48;94073.19;5015351;28;20545;-82
2020/12/28 05:38:00;;;;;;;38.50;22.77;;;;;;;6.82;95.27;94074.03;5014712;28;20980;-82
2020/12/28 05:40:27;;;;;;;29.57;17.97;;;;;;;6.79;95.32;94083.88;5015621;28;20473;-81
2020/12/28 05:42:55;;;;;;;18.80;12.80;;;;;;;6.80;95.34;94103.78;4996246;28;20443;-81
2020/12/28 05:45:22;;;;;;;50.13;26.60;;;;;;;6.64;97.81;94095.56;5015078;28;20494;-82
2020/12/28 05:47:51;;;;;;;33.10;20.90;;;;;;;6.65;98.59;94102.44;4980183;28;20538;-81
2020/12/28 05:50:21;;;;;;;40.40;22.90;;;;;;;6.72;99.29;94101.81;5014984;28;20459;-81
2020/12/28 05:52:52;;;;;;;23.77;14.60;;;;;;;6.83;100.00;94100.91;5014417;28;20830;-80
2020/12/28 05:55:21;;;;;;;19.70;12.03;;;;;;;6.70;100.00;94106.34;5014521;28;20491;-81
2020/12/28 05:57:48;;;;;;;18.27;12.43;;;;;;;6.83;100.00;94120.00;5014250;28;20509;-81
2020/12/28 06:00:14;;;;;;;16.50;9.07;;;;;;;6.86;99.21;94107.66;5014257;28;20437;-80
2020/12/28 06:02:41;;;;;;;19.63;11.30;;;;;;;6.60;99.28;94108.03;5014572;28;20450;-81
2020/12/28 06:05:14;;;;;;;15.43;9.60;;;;;;;6.75;99.20;94117.22;4979540;28;20443;-81
2020/12/28 06:07:41;;;;;;;17.00;10.87;;;;;;;6.81;99.40;94106.25;5014542;28;20451;-82
2020/12/28 06:10:08;;;;;;;24.80;15.57;;;;;;;6.81;98.83;94080.19;5013658;28;20454;-82
2020/12/28 06:12:35;;;;;;;17.43;13.20;;;;;;;6.82;98.21;94081.84;5014305;28;20470;-82
2020/12/28 06:15:01;;;;;;;25.80;15.77;;;;;;;6.77;99.35;94102.25;5013725;28;20451;-82
2020/12/28 06:17:35;;;;;;;20.13;15.17;;;;;;;6.73;99.56;94108.69;5013513;28;20451;-82
2020/12/28 06:20:04;;;;;;;15.13;10.70;;;;;;;6.78;100.00;94106.53;5013771;28;20447;-82
2020/12/28 06:22:32;;;;;;;13.80;10.13;;;;;;;6.84;100.00;94113.84;5014126;28;20447;-83
2020/12/28 06:25:00;;;;;;;14.32;10.50;;;;;;;6.93;100.00;94112.22;5013456;28;20959;-83
2020/12/28 06:27:29;;;;;;;13.43;8.63;;;;;;;7.04;100.00;94119.19;5013479;28;20335;-82
2020/12/28 06:30:07;;;;;;;16.13;10.40;;;;;;;7.08;100.00;94112.75;4994938;28;20473;-82
2020/12/28 06:32:33;;;;;;;28.70;12.00;;;;;;;7.21;100.00;94097.72;5013674;28;20444;-81
2020/12/28 06:35:01;;;;;;;58.70;14.03;;;;;;;7.51;100.00;94116.94;5013543;28;20451;-83
2020/12/28 06:37:28;;;;;;;221.07;51.17;;;;;;;7.70;100.00;94114.44;5013453;28;20923;-82
2020/12/28 06:39:59;;;;;;;42.07;19.90;;;;;;;7.93;100.00;94108.03;5013378;28;20447;-84
2020/12/28 06:42:25;;;;;;;16.17;13.87;;;;;;;8.00;100.00;94111.78;5013786;28;20448;-83
2020/12/28 06:44:51;;;;;;;20.47;18.37;;;;;;;8.06;100.00;94113.84;5013203;28;20441;-82
2020/12/28 06:47:20;;;;;;;21.57;19.23;;;;;;;8.20;100.00;94128.31;5013123;28;20936;-85
2020/12/28 06:49:47;;;;;;;17.70;13.70;;;;;;;8.28;100.00;94127.66;5013583;28;20550;-83
2020/12/28 06:52:14;;;;;;;22.03;15.23;;;;;;;8.18;98.56;94142.50;5013426;28;20460;-81
2020/12/28 06:54:40;;;;;;;28.83;18.40;;;;;;;8.11;97.84;94144.81;5013627;28;20460;-82
2020/12/28 06:57:08;;;;;;;35.17;21.33;;;;;;;8.04;99.06;94136.66;5012816;28;20999;-82
2020/12/28 06:59:36;;;;;;;44.03;26.90;;;;;;;7.94;99.67;94127.97;5013446;28;20486;-84
2020/12/28 07:02:03;;;;;;;37.30;23.53;;;;;;;7.90;100.00;94113.53;5012847;28;20455;-83
2020/12/28 07:04:33;;;;;;;42.97;24.80;;;;;;;7.96;100.00;94115.63;5012849;28;20509;-80
2020/12/28 07:07:02;;;;;;;49.57;24.73;;;;;;;8.08;100.00;94111.09;5012850;28;20484;-80
2020/12/28 07:09:29;;;;;;;45.10;28.20;;;;;;;7.94;100.00;94111.47;5012848;28;20516;-81
2020/12/28 07:11:56;;;;;;;31.17;21.23;;;;;;;8.12;100.00;94107.28;5012741;28;20436;-81
2020/12/28 07:14:23;;;;;;;40.90;23.10;;;;;;;8.34;100.00;94108.84;5013126;28;20455;-81
2020/12/28 07:16:54;;;;;;;31.60;16.57;;;;;;;8.53;100.00;94134.19;5012739;28;20536;-81
2020/12/28 07:19:20;;;;;;;20.47;16.60;;;;;;;8.68;99.90;94114.53;5009428;28;20450;-81
2020/12/28 07:21:46;;;;;;;25.13;17.97;;;;;;;8.68;98.84;94112.72;5008866;28;20557;-81
2020/12/28 07:24:13;;;;;;;29.63;19.50;;;;;;;8.62;98.42;94121.09;5008942;28;20452;-81
2020/12/28 07:26:42;;;;;;;25.40;18.53;;;;;;;8.70;98.81;94117.81;4993356;28;20454;-81
2020/12/28 07:29:12;;;;;;;27.73;19.40;;;;;;;8.83;98.68;94126.22;4993454;28;20858;-80
2020/12/28 07:31:40;;;;;;;33.83;20.43;;;;;;;8.96;98.46;94136.38;4999197;28;20488;-79
2020/12/28 07:34:06;;;;;;;24.30;17.57;;;;;;;9.05;97.58;94139.97;4992979;28;20441;-80
2020/12/28 07:36:34;;;;;;;31.23;18.33;;;;;;;9.04;99.08;94139.16;5005098;28;20480;-80
2020/12/28 07:39:02;;;;;;;21.53;15.87;;;;;;;8.92;99.36;94121.91;5012535;28;20452;-80
2020/12/28 07:41:28;;;;;;;24.70;15.23;;;;;;;8.76;99.23;94146.03;5011067;28;20445;-80
2020/12/28 07:43:56;;;;;;;24.10;16.23;;;;;;;8.71;99.90;94137.78;5012103;28;20452;-81
2020/12/28 07:47:04;;;;;;;21.80;13.57;;;;;;;8.62;100.00;94123.72;5012342;28;20452;-90
2020/12/28 07:49:38;;;;;;;21.00;14.80;;;;;;;8.59;99.14;94138.84;4875949;29;20447;-81
2020/12/28 07:52:11;;;;;;;26.60;16.10;;;;;;;8.47;100.00;94130.34;4840315;29;20503;-79
2020/12/28 07:54:44;;;;;;;22.80;15.20;;;;;;;8.63;100.00;94141.06;4857734;29;20452;-81
2020/12/28 07:57:20;;;;;;;19.27;14.27;;;;;;;8.65;100.00;94144.38;4857553;29;20499;-79
2020/12/28 07:59:53;;;;;;;26.57;15.20;;;;;;;8.89;100.00;94158.84;4860294;29;20487;-90
2020/12/28 08:02:44;;;;;;;22.00;15.37;;;;;;;9.03;100.00;94147.97;4858325;29;20581;-82
2020/12/28 08:05:13;;;;;;;17.00;10.53;;;;;;;9.10;99.23;94141.19;4858120;29;20465;-81
2020/12/28 08:07:39;;;;;;;16.37;11.23;;;;;;;9.14;97.55;94137.34;4857438;29;20455;-81
2020/12/28 08:10:10;;;;;;;18.40;12.57;;;;;;;9.17;97.20;94133.59;4857634;29;20959;-82
2020/12/28 08:12:40;;;;;;;15.83;12.43;;;;;;;9.15;97.50;94131.13;4857425;29;20458;-81
2020/12/28 08:15:07;;;;;;;16.70;11.70;;;;;;;9.10;97.79;94122.88;4857729;29;20447;-82
2020/12/28 08:17:33;;;;;;;15.80;10.70;;;;;;;9.21;96.82;94135.81;4857891;29;20476;-81
2020/12/28 08:20:07;;;;;;;19.40;13.70;;;;;;;9.30;97.65;94119.28;4858498;29;20619;-82
2020/12/28 08:22:34;;;;;;;17.57;12.80;;;;;;;9.35;96.64;94115.41;4866036;29;20499;-81
2020/12/28 08:25:02;;;;;;;35.00;17.03;;;;;;;9.38;97.46;94097.59;4881067;29;20568;-81
2020/12/28 08:27:30;;;;;;;24.00;15.90;;;;;;;9.41;97.63;94086.84;4992854;28;20490;-83
2020/12/28 08:29:57;;;;;;;30.47;18.33;;;;;;;9.39;97.99;94104.50;4992600;28;20449;-83
2020/12/28 08:32:27;;;;;;;15.70;11.83;;;;;;;9.43;95.80;94089.31;4992988;28;20790;-83
2020/12/28 08:34:56;;;;;;;18.40;12.93;;;;;;;9.45;95.68;94090.00;4992684;28;20451;-83
2020/12/28 08:37:22;;;;;;;17.90;12.33;;;;;;;9.58;97.10;94095.75;4992860;28;20488;-83
2020/12/28 08:39:50;;;;;;;18.33;11.03;;;;;;;9.66;96.35;94082.75;4992653;28;20444;-83
2020/12/28 08:42:26;;;;;;;17.33;10.90;;;;;;;9.66;95.51;94080.13;4992779;28;20470;-82
2020/12/28 08:44:52;;;;;;;18.27;10.63;;;;;;;9.63;97.31;94083.06;4993088;28;20447;-83
2020/12/28 08:47:19;;;;;;;12.40;8.50;;;;;;;9.63;96.87;94078.63;4992594;28;20450;-83
2020/12/28 08:49:48;;;;;;;8.73;7.00;;;;;;;9.75;96.92;94071.41;4993091;28;20451;-82
2020/12/28 08:52:16;;;;;;;9.60;7.03;;;;;;;9.76;95.85;94070.44;4992569;28;20446;-82
2020/12/28 08:54:43;;;;;;;12.03;8.80;;;;;;;9.91;93.92;94079.47;4961320;28;20477;-82
2020/12/28 08:57:19;;;;;;;10.00;5.37;;;;;;;9.94;91.29;94071.31;4995978;28;20904;-83
2020/12/28 08:59:46;;;;;;;7.50;5.37;;;;;;;10.16;91.17;94069.28;4996251;28;20458;-83
2020/12/28 09:02:16;;;;;;;8.13;6.50;;;;;;;10.29;88.49;94061.06;4996000;28;20834;-83
2020/12/28 09:04:42;;;;;;;10.97;6.83;;;;;;;10.48;87.74;94058.31;4995978;28;20486;-82
2020/12/28 09:07:09;;;;;;;5.30;4.83;;;;;;;10.60;86.45;94057.09;4996149;28;20954;-82
2020/12/28 09:09:35;;;;;;;6.20;5.60;;;;;;;10.69;84.41;94055.34;4996008;28;20452;-82
2020/12/28 09:12:02;;;;;;;7.57;5.90;;;;;;;10.85;83.53;94052.88;4995938;28;20457;-82
2020/12/28 09:14:29;;;;;;;5.90;4.67;;;;;;;10.98;82.00;94052.47;4995952;28;20456;-82
2020/12/28 09:16:55;;;;;;;6.33;4.60;;;;;;;11.10;80.02;94059.97;4995837;28;20488;-82
2020/12/28 09:19:22;;;;;;;5.90;5.30;;;;;;;11.25;78.57;94054.13;4995942;28;20458;-83
2020/12/28 09:21:48;;;;;;;7.03;3.70;;;;;;;11.31;76.66;94056.16;4998066;28;20448;-81
2020/12/28 09:24:15;;;;;;;10.03;7.00;;;;;;;11.39;81.90;94051.78;5015580;28;20453;-81
2020/12/28 09:26:41;;;;;;;6.43;5.53;;;;;;;11.37;81.26;94063.41;5016262;28;20451;-80
2020/12/28 09:29:07;;;;;;;12.80;8.00;;;;;;;11.43;84.49;94058.34;5015855;28;20456;-81
2020/12/28 09:31:35;;;;;;;15.03;8.77;;;;;;;11.50;84.05;94066.44;5015112;28;20450;-81
2020/12/28 09:34:01;;;;;;;8.53;5.93;;;;;;;11.52;83.17;94064.47;5015123;28;20447;-81
2020/12/28 09:36:28;;;;;;;6.83;5.20;;;;;;;11.61;79.77;94065.38;5016461;28;20482;-81
2020/12/28 09:38:54;;;;;;;7.03;3.73;;;;;;;11.70;74.87;94065.25;5015019;28;20796;-88
2020/12/28 09:41:20;;;;;;;6.10;5.10;;;;;;;11.75;74.73;94064.75;5015033;28;20518;-83
2020/12/28 09:43:47;;;;;;;8.33;6.00;;;;;;;11.69;73.22;94055.72;5014659;28;20447;-81
2020/12/28 09:46:18;;;;;;;7.23;4.40;;;;;;;11.89;74.22;94034.47;5016180;28;20485;-80
2020/12/28 09:48:46;;;;;;;4.97;4.03;;;;;;;12.01;69.97;94054.22;5015588;28;20462;-86
2020/12/28 09:51:13;;;;;;;4.43;3.93;;;;;;;12.17;69.95;94042.94;5015286;28;20455;-80
2020/12/28 09:53:39;;;;;;;10.80;4.80;;;;;;;12.32;70.00;94036.88;4972325;28;20456;-81
2020/12/28 09:56:05;;;;;;;5.77;3.80;;;;;;;12.43;61.93;94033.09;5006561;28;20897;-82
2020/12/28 09:58:33;;;;;;;11.63;3.27;;;;;;;12.57;60.46;94031.66;4994279;28;20546;-82
2020/12/28 10:00:59;;;;;;;2.43;1.77;;;;;;;12.64;59.74;94016.84;4959848;28;20428;-82
2020/12/28 10:03:26;;;;;;;4.17;1.70;;;;;;;12.68;58.91;94010.28;4993624;28;20449;-81
2020/12/28 10:05:53;;;;;;;2.70;1.20;;;;;;;12.70;57.57;94003.03;4994096;28;20861;-81
2020/12/28 10:08:20;;;;;;;2.80;1.63;;;;;;;12.76;57.31;93998.94;4994737;28;20452;-81
2020/12/28 10:10:47;;;;;;;5.90;2.93;;;;;;;12.77;57.72;93977.72;4994648;28;20440;-81
2020/12/28 10:13:13;;;;;;;8.40;5.13;;;;;;;12.88;58.46;93989.69;4994530;28;20455;-82
2020/12/28 10:15:40;;;;;;;7.40;4.60;;;;;;;12.98;60.37;93959.56;4994236;28;20489;-81
2020/12/28 10:18:39;;;;;;;4.90;1.90;;;;;;;12.98;57.39;93964.81;4994024;28;20547;-81
2020/12/28 10:21:09;;;;;;;5.40;1.80;;;;;;;13.05;58.25;93956.28;4994313;28;20508;-82
2020/12/28 10:23:35;;;;;;;2.53;2.20;;;;;;;13.11;57.62;93963.50;5003448;28;20553;-82
2020/12/28 10:26:05;;;;;;;2.13;1.93;;;;;;;13.16;55.75;93950.66;5013600;28;20498;-82
2020/12/28 10:28:31;;;;;;;2.23;1.60;;;;;;;13.26;57.06;93943.41;5013751;28;20458;-81
2020/12/28 10:30:57;;;;;;;1.83;1.50;;;;;;;13.29;56.43;93948.31;5013482;28;20482;-82
2020/12/28 10:33:24;;;;;;;1.60;1.50;;;;;;;13.32;54.73;93946.19;5013447;28;20447;-81
2020/12/28 10:35:51;;;;;;;1.90;1.53;;;;;;;13.37;55.84;93950.94;5013297;28;20533;-81
2020/12/28 10:38:18;;;;;;;1.80;1.50;;;;;;;13.36;54.92;93949.31;4995027;28;20453;-82
2020/12/28 10:40:44;;;;;;;2.67;2.47;;;;;;;13.44;55.48;93944.00;4994813;28;20435;-82
2020/12/28 10:43:11;;;;;;;2.67;2.43;;;;;;;13.53;56.43;93942.16;5013251;28;20448;-81
2020/12/28 10:45:37;;;;;;;1.43;1.33;;;;;;;13.48;53.03;93944.47;5013216;28;20442;-82
2020/12/28 10:48:03;;;;;;;3.83;1.83;;;;;;;13.55;53.68;93943.63;5013305;28;20946;-82
2020/12/28 10:50:30;;;;;;;6.93;3.90;;;;;;;13.55;51.46;93945.44;5013672;28;20459;-83
2020/12/28 10:52:56;;;;;;;6.27;4.17;;;;;;;13.51;51.16;93944.94;5012904;28;20554;-81
2020/12/28 10:55:24;;;;;;;7.37;2.90;;;;;;;13.53;53.17;93942.97;5013981;28;20451;-87
2020/12/28 10:57:50;;;;;;;1.40;1.10;;;;;;;13.50;52.36;93937.22;5013018;28;20501;-81
2020/12/28 11:00:17;;;;;;;1.50;1.30;;;;;;;13.47;51.41;93929.66;5012807;28;20450;-79
2020/12/28 11:02:43;;;;;;;1.23;1.13;;;;;;;13.45;51.40;93923.75;5013077;28;20506;-82
2020/12/28 11:05:10;;;;;;;2.50;1.97;;;;;;;13.52;52.03;93922.06;5013533;28;20461;-81
2020/12/28 11:07:36;;;;;;;3.00;1.50;;;;;;;13.54;51.95;93917.44;5013219;28;20814;-81
2020/12/28 11:10:03;;;;;;;2.80;1.30;;;;;;;13.58;51.96;93916.91;5013462;28;20454;-82
2020/12/28 11:12:31;;;;;;;4.80;1.63;;;;;;;13.54;50.75;93918.25;5013617;28;20455;-82
2020/12/28 11:14:57;;;;;;;2.90;1.50;;;;;;;13.54;50.44;93905.06;5012364;28;20449;-82
2020/12/28 11:17:24;;;;;;;13.67;1.97;;;;;;;13.55;47.02;93919.88;5012459;28;20950;-82
2020/12/28 11:19:50;;;;;;;3.83;2.00;;;;;;;13.54;47.90;93907.72;5013283;28;20440;-81
2020/12/28 11:22:16;;;;;;;2.90;1.80;;;;;;;13.59;48.25;93908.03;5013124;28;20461;-84
2020/12/28 11:24:43;;;;;;;3.70;2.70;;;;;;;13.63;47.12;93896.16;5012536;28;20451;-83
2020/12/28 11:27:09;;;;;;;4.10;2.70;;;;;;;13.68;48.58;93905.34;5012920;28;20482;-82
2020/12/28 11:29:36;;;;;;;2.20;2.00;;;;;;;13.70;48.00;93904.19;5012767;28;20501;-83
2020/12/28 11:32:05;;;;;;;2.13;1.93;;;;;;;13.73;47.84;93884.56;5013302;28;20472;-83